Koji Ueda

Scout - Omiya Ardija
3 Dec 2028
Sunday
Process

Personality

Adaptability (18) Ambition (19) Controversy (17) Loyalty (3) Pressure (2) Professionalism (10) Sportsmanship (10) Temperament (19)

Profile

Coaching Style Democratic
License Continental C
Determination 9
Man Management 10
Motivating 6
Discipline 11
Job Satisfaction
100%
Fatigue
0%
Role Scout
Wage 60.0K p/w
Contract 14.03.2030

Performance

Behaviour Good
Training Effectiveness
35%
Player Development
45%
Injury Prevention
20%
Tactical Implementation
40%

Recent Events

Assessed a player now
Attended a recruitment meeting now
Recommended a transfer target now
Assessed a player now
Assessed a player 7d ago
Assessed a player 7d ago
Assessed a player 7d ago
Assessed a player 7d ago

Currently Monitoring

147
Player Club Status Ability Confidence Watched Last Observed Latest Vote
Chukwuemeka Obioma Abia Warriors Active 109 / 86 40% 3 02.12.2028 -
Yota Komi Kashiwa Reysol Active 122 / 115 40% 3 02.12.2028 -
Nicolás Ferreira Wanderers Active 115 / 110 40% 7 01.12.2028 -
Luciano Cosentino Wanderers Active 129 / 119 40% 5 01.12.2028 -
Chineme Chinonso Ikorodu City Active 95 / 93 40% 1 01.12.2028 -
Ruyery Blanco Alianza Petrolera Active 115 / 115 40% 2 28.11.2028 -
Esteban Obregón Montevideo City Torque Active 113 / 110 40% 9 28.11.2028 -
Diego Herazo Independiente Medellin Active 112 / 101 40% 2 28.11.2028 -
Andrés Carreño Aguilas Doradas Active 115 / 102 40% 3 27.11.2028 -
Shunta Araki Vegalta Sendai Active 114 / 109 40% 3 26.11.2028 -
Juan David Rueda Alianza Petrolera Active 120 / 100 40% 2 26.11.2028 -
Fabri Vitória Active 119 / 116 40% 2 25.11.2028 -
Juan Hurtado Alianza Petrolera Active 133 / 119 40% 3 23.11.2028 -
James Emo Rangers International Active 87 / 80 40% 2 23.11.2028 -
Lisandro Cabrera Maipú Active 121 / 122 40% 2 22.11.2028 -
Jeinner Fuentes Deportes Tolima Active 116 / 120 40% 1 22.11.2028 -
Julian Herrera Cortulua Active 126 / 126 40% 7 21.11.2028 -
Alejandro Piedrahita Deportivo Pereira Active 130 / 118 40% 1 21.11.2028 -
Waheed Adebayo Rangers International Active 96 / 104 40% 1 21.11.2028 -
Daniel Barrea Godoy Cruz Active 123 / 124 40% 3 18.11.2028 -
Nicolás Medina Atlanta Active 109 / 102 40% 1 17.11.2028 -
Diego Castillo Aguilas Doradas Active 109 / 97 40% 6 16.11.2028 -
Jhonier Blanco Fortaleza CEIF Active 110 / 108 40% 2 16.11.2028 -
Enzo González Defensores Active 107 / 116 40% 5 15.11.2028 -
Alejo Cruz Juventud Active 130 / 113 40% 2 15.11.2028 -
Mauricio Márquez Caracas Active 100 / 98 40% 3 13.11.2028 -
Patrick Preciado Deportivo Pasto Active 116 / 114 40% 4 13.11.2028 -
Ramiro Ruiz Rodríguez Atlético Tucumán Active 117 / 117 40% 1 11.11.2028 -
Jorge Obregón Deportivo Pasto Active 121 / 119 40% 2 10.11.2028 -
Adeshina Gata Kwara United Active 84 / 95 40% 1 10.11.2028 -
Nicolás Cordero Aldosivi Active 125 / 125 40% 1 07.11.2028 -
Marco Miori Alvarado Active 121 / 113 40% 1 07.11.2028 -
Alexander Díaz Deportivo Riestra Active 126 / 128 40% 4 04.11.2028 -
José Balza Deportivo Tachira Active 112 / 106 40% 1 02.11.2028 -
Werik Popo Avispa Fukuoka Active 116 / 112 40% 2 01.11.2028 -
Samuel Anakwe Remo Stars Active 103 / 92 40% 1 01.11.2028 -
Agustín Rodríguez Juventud Active 133 / 136 40% 4 31.10.2028 -
Franco García Molde Active 111 / 109 40% 1 31.10.2028 -
Leandro Suhr Boston River Active 115 / 106 40% 2 28.10.2028 -
Jonás Luna Wanderers Active 117 / 115 40% 2 28.10.2028 -
Lyle Foster Rosenborg Active 144 / 139 40% 1 28.10.2028 -
Rodrigo Auzmendi Banfield Active 114 / 133 40% 1 27.10.2028 -
José Barreto Quilmes Active 113 / 123 40% 2 26.10.2028 -
Sunusi Ibrahim Vegalta Sendai Active 116 / 110 40% 1 26.10.2028 -
Santiago Sala Güemes Active 114 / 113 40% 4 25.10.2028 -
Miguel Pereira Persebaya Active 126 / 116 40% 1 25.10.2028 -
Emiliano Gómez Boston River Active 115 / 112 40% 4 19.10.2028 -
Facundo Krüger Temperley Active 121 / 110 40% 1 19.10.2028 -
Jhon Murillo Jaguares Active 124 / 107 40% 1 18.10.2028 -
Michael Nike Patriotas Active 101 / 97 40% 2 16.10.2028 -
Sebastián Cocimano Nueva Chicago Active 115 / 114 40% 1 16.10.2028 -
Mauro Valiente Estudiantes Active 110 / 117 40% 3 15.10.2028 -
Okardi Inikurogha Bayelsa United Active 104 / 101 40% 2 15.10.2028 -
Gianluca Pugliese Güemes Active 122 / 119 40% 3 14.10.2028 -
Agustín Gallo Tristán Suárez Active 122 / 115 40% 1 11.10.2028 -
Tomás Jerez San Miguel Active 113 / 116 40% 1 08.10.2028 -
Timothy Zechariah Rivers United Active 98 / 91 40% 2 07.10.2028 -
Richard Figueroa Deportivo Lara Active 115 / 109 40% 1 08.09.2028 -
Kelvin Flórez Deportes Tolima Active 116 / 126 40% 2 05.09.2028 -
Augusto Berrondo Tristán Suárez Active 115 / 119 40% 1 05.09.2028 -
Jorge Rivaldo Real Cartagena Active 129 / 113 40% 2 04.09.2028 -
Francesco Petito Dolomiti Bellunesi Active 101 / 114 40% 3 19.08.2028 -
Vanja Vlahović Spezia Active 133 / 121 40% 1 19.08.2028 -
Simone Mazzocchi Cosenza Active 134 / 111 40% 5 18.08.2028 -
Guillaume Furrer Lecco Active 110 / 102 40% 3 18.08.2028 -
Adam Jakobsen Castellón Active 124 / 124 40% 10 14.08.2028 -
Kaoru Osako Gamba Osaka Negotiating 91 / 103 72% 1 14.08.2028 -
Mattia Iori Lumezzane Active 107 / 114 40% 1 13.08.2028 -
Luca Mazzeo Picerno Active 114 / 112 40% 1 12.08.2028 -
Jack Vale Sorrento Active 98 / 116 40% 4 10.08.2028 -
Camillo Tavernelli Arezzo Active 121 / 115 40% 3 10.08.2028 -
Liam Cullen Swansea City Active 128 / 131 40% 5 09.08.2028 -
Carlos Gugenheim Grimsby Town Active 110 / 105 40% 3 09.08.2028 -
Kylian Kouassi Colchester United Active 102 / 96 40% 5 08.08.2028 -
Luca Vido Union Brescia Active 117 / 105 40% 1 08.08.2028 -
Johnny Kenny Preston Active 126 / 132 40% 6 07.08.2028 -
Tyrese Shade Burton Albion Active 103 / 118 40% 5 07.08.2028 -
Aaron Collins Milton Keynes Dons Active 121 / 126 40% 1 07.08.2028 -
Job Ochieng Real Sociedad Active 119 / 104 40% 5 20.07.2028 -
Harvey Blair Portsmouth Active 133 / 123 40% 1 20.07.2028 -
Will Davies Fleetwood Town Active 104 / 92 40% 1 18.07.2028 -
Dale Taylor Blackpool Active 125 / 127 40% 2 16.07.2028 -
Matteo Rover Reggiana Active 129 / 115 40% 2 16.07.2028 -
Calum Kavanagh Oldham Athletic Active 107 / 110 40% 4 15.07.2028 -
Justin Obikwu Queens Park Rangers Active 105 / 100 40% 6 15.07.2028 -
Emanuele Schimmenti Potenza Active 129 / 110 40% 1 15.07.2028 -
Tyler Roberts Mansfield Town Active 102 / 106 40% 1 14.07.2028 -
Tyler Walton Bromley Active 99 / 108 40% 5 13.07.2028 -
Ole Romeny Oxford United Active 125 / 122 40% 4 13.07.2028 -
Marco Tumminello Benevento Active 112 / 109 40% 4 13.07.2028 -
Sam Dalby Bolton Wanderers Active 113 / 119 40% 4 12.07.2028 -
Álvaro García Castellón Active 120 / 134 40% 5 11.07.2028 -
Danny Butterworth Accrington Stanley Active 97 / 108 40% 2 09.07.2028 -
Sam Nombe Milton Keynes Dons Active 118 / 116 40% 10 08.07.2028 -
Emanuele Scipioni Monopoli Active 119 / 110 40% 1 08.07.2028 -
Ante Crnac Bristol Rovers Active 125 / 129 40% 4 05.07.2028 -
Dany Jean Torreense Active 119 / 106 40% 5 03.07.2028 -
Ekain Orobengoa Real Sociedad Active 101 / 118 40% 1 03.07.2028 -
Alassana Jatta Notts County Active 112 / 104 40% 1 01.07.2028 -
Ryan Graydon Salford City Active 114 / 107 40% 5 30.06.2028 -
Alan Cisnero Exeter City Active 105 / 100 40% 1 30.06.2028 -
Admir Bristrić Cambridge United Active 122 / 118 40% 2 26.06.2028 -
George Lloyd Shrewsbury Town Active 103 / 101 40% 1 26.06.2028 -
Rayan Kolli Queens Park Rangers Active 124 / 116 40% 1 26.06.2028 -
Josh Stokes Bristol City Active 116 / 132 40% 3 25.06.2028 -
Layton Stewart Barnet Active 110 / 111 40% 3 22.06.2028 -
Luca Moro Padova Active 136 / 121 40% 1 22.06.2028 -
Álex Millán Leganés Active 109 / 113 40% 2 20.06.2028 -
Manuel De Luca Cremonese Active 136 / 127 40% 3 19.06.2028 -
Louis Appéré Cambridge United Active 115 / 94 40% 1 16.06.2028 -
Joshua Ajala Walsall Active 110 / 106 40% 4 15.06.2028 -
Mees Rijks Bristol Rovers Active 128 / 116 40% 5 15.06.2028 -
Anthony Scully Shrewsbury Town Active 112 / 97 40% 4 13.06.2028 -
Armstrong Oko-Flex Levski Active 123 / 129 40% 5 11.06.2028 -
Olaf Kobacki Sheffield Wednesday Active 106 / 124 40% 4 11.06.2028 -
Jalen Blesa Oliveirense Active 133 / 118 40% 4 11.06.2028 -
Kaye Furo Reading Active 134 / 137 40% 2 09.06.2028 -
Fábio Jaló Barnsley Active 110 / 101 40% 1 07.06.2028 -
Miro Arsenal Tula Active 122 / 116 40% 11 05.06.2028 -
Timur Suleimanov Nizhniy Novgorod Active 119 / 111 40% 3 05.06.2028 -
Rocco Vata Watford Active 131 / 121 40% 1 29.05.2028 -
Kleis Bozhanaj Modena Active 128 / 126 40% 3 25.05.2028 -
Jorge Delgado Cultural Leonesa Active 109 / 125 40% 3 24.05.2028 -
Fernando Penafiel Active 128 / 134 40% 4 20.05.2028 -
Jorge Cabezas Hurtado Watford Active 115 / 115 40% 4 15.05.2028 -
Kuki Zalazar Ceuta Active 125 / 119 40% 1 05.05.2028 -
Gabriele Gori Ascoli Active 111 / 103 40% 1 03.05.2028 -
Christian Saydee Wigan Athletic Active 128 / 109 40% 1 28.04.2028 -
Pau Sans Zaragoza Active 120 / 122 40% 1 28.04.2028 -
Ondřej Lingr Korona Active 135 / 122 40% 2 26.04.2028 -
Zé Leite Moreirense Active 114 / 127 40% 2 24.04.2028 -
David Ankeye Zeleznicar Pancevo Active 118 / 112 40% 1 23.04.2028 -
Vyacheslav Grulev Nizhniy Novgorod Active 109 / 117 40% 1 17.04.2028 -
Wendel Silva Santa Clara Active 122 / 115 40% 2 14.04.2028 -
Bashar Musa US Forces Armees Active 95 / 103 40% 2 12.04.2028 -
Dawda Camara Alverca Active 131 / 121 40% 1 12.04.2028 -
Figueiredo Alverca Active 145 / 131 40% 1 05.04.2028 -
Adam Idah Swansea City Active 126 / 125 40% 1 04.04.2028 -
Matheus Davó Maccabi Netanya Active 134 / 111 40% 1 02.04.2028 -
Seidu Basit Ashanti Gold Active 102 / 89 40% 2 01.04.2028 -
Guilherme Neiva AVS Active 104 / 117 40% 1 29.03.2028 -
André Lacximicant Estoril Praia Active 127 / 111 40% 1 24.03.2028 -
Brayan Gil Baltika Active 133 / 116 40% 2 22.03.2028 -
Juan Manuel Boselli Rubin Active 128 / 119 40% 1 21.03.2028 -
Wesley Pomba Rukh Active 112 / 116 40% 1 20.03.2028 -
Kahiser Lenis Ceará Active 127 / 117 40% 1 18.03.2028 -
Yuji Ono Albirex Niigata Active 104 / 108 65% 1 22.02.2027 Approve